首页
METAR-TAF:

METAR-TAF

机场 :

墨爾本機場

墨尔本, 澳大利亚

纬度: 37-40-24S, 经度: 144-50-36E, 海拔: 132米

当前天气观测

该预报发布于19分钟前的04:00 UTC
风速10节,风向西转西南
温度 12°C
湿度 76%
气压 1025 hPa
能见度10公里或以上
少量云层高于1500英尺
散云层高于1900英尺
多云层高于2100英尺
附近有阵雨

METAR: YMML 230400Z 24010KT 9999 VCSH FEW015 SCT019 BKN021 12/08 Q1025 INTER 0400/0700 5000 SHRA BKN015

时间: 14:19 (04:19 UTC)

预报

该预报发布于4小时和44分钟前的23:35 UTC
预报有效从23日的 00点(UTC)到 24日的 06点(UTC)
风速12节,风向
能见度10公里或以上
少量云层高于2000英尺
多云层高于2500英尺
小阵雨
从 23日的 0400点(UTC)
风速12节,风向西转西南
能见度10公里或以上
少量云层高于1000英尺
多云层高于2000英尺
小阵雨
从 23日的 0800点(UTC)
风速8节,风向西
能见度10公里或以上
少量云层高于2000英尺
多云层高于3500英尺
小阵雨
从 23日的 1200点(UTC)
风速10节,风向西转西南
能見度: 5000
多云层高于4000英尺
多云层高于1500英尺
阵雨
短暂存在
从 23日的 04点(UTC)到 23日的 07点(UTC)
能見度: 5000
多云层高于800英尺
多云层高于2000英尺
阵雨, 阵雨

TAF: YMML 222335Z 2300/2406 35012KT 9999 -SHRA FEW020 BKN025 FM230400 24012KT 9999 -SHRA FEW010 BKN020 FM230800 26008KT 9999 -SHRA FEW020 BKN035 FM231200 24010KT 9999 BKN040 INTER 2302/2304 5000 SHRA BKN015 TEMPO 2304/2307 5000 SHRA BKN008 INTER 2307/2310 5000 SHRA BKN020

超过4000个机场的气象观测和天气预报(METAR&TAF报告)。

可查询的气象台以黄色和红色小点在地图上表示。

将鼠标移到小点上方,可查看气象台名称。

然后点击查看天气观测和预报。

如需切换地图:点击带黑十字的绿色按钮放大地图;点击带横线的绿色按钮缩小地图;或者点击绿色箭头查看邻近地区的地图。


METAR-TAF: